createdAt,value
2022-11-05T00:00:19.147Z,99561.75
2022-11-05T00:02:20.619Z,99575.09
2022-11-05T00:06:32.125Z,99574.53
2022-11-05T00:08:35.285Z,99580.41
2022-11-05T00:10:38.455Z,99573.13
2022-11-05T00:12:40.284Z,99576.97
2022-11-05T00:14:41.869Z,99572.69
2022-11-05T00:16:43.406Z,99578.78
2022-11-05T00:18:45.066Z,99588.06
2022-11-05T00:20:46.576Z,99588.47
2022-11-05T00:22:48.110Z,99577.16
2022-11-05T00:24:50.979Z,99596.97
2022-11-05T00:26:52.492Z,99593.72
2022-11-05T00:28:54.046Z,99587.66
2022-11-05T00:31:00.525Z,99595.13
2022-11-05T00:33:02.243Z,99589.63
2022-11-05T00:35:04.373Z,99604.59
2022-11-05T00:37:05.878Z,99603.56
2022-11-05T00:39:07.406Z,99600.53
2022-11-05T00:41:10.343Z,99599.72
2022-11-05T00:43:12.817Z,99603.72
2022-11-05T00:45:14.906Z,99605.53
2022-11-05T00:47:16.405Z,99605.28
2022-11-05T00:49:17.906Z,99607.91
2022-11-05T00:51:19.696Z,99604.06
2022-11-05T00:53:21.253Z,99608.72
2022-11-05T00:55:23.407Z,99610.91
2022-11-05T00:57:26.332Z,99608.03
2022-11-05T00:59:27.858Z,99618.47
2022-11-05T01:01:29.451Z,99608.22
2022-11-05T01:03:34.130Z,99615.31
2022-11-05T01:05:39.087Z,99612.16
2022-11-05T01:07:40.900Z,99609.75
2022-11-05T01:09:42.401Z,99616.97
2022-11-05T01:11:43.885Z,99623.59
2022-11-05T01:13:47.183Z,99623.00
2022-11-05T01:15:49.921Z,99631.06
2022-11-05T01:17:51.940Z,99632.63
2022-11-05T01:19:53.460Z,99638.50
2022-11-05T01:21:54.986Z,99641.50
2022-11-05T01:23:56.589Z,99635.41
2022-11-05T01:25:58.541Z,99633.25
2022-11-05T01:28:01.282Z,99643.44
2022-11-05T01:30:06.190Z,99644.22
2022-11-05T01:32:07.720Z,99644.19
2022-11-05T01:34:09.228Z,99647.03
2022-11-05T01:36:10.780Z,99648.44
2022-11-05T01:38:12.457Z,99646.53
2022-11-05T01:40:15.761Z,99647.34
2022-11-05T01:42:21.412Z,99647.56
2022-11-05T01:45:02.260Z,99653.28
2022-11-05T01:47:05.415Z,99661.72
2022-11-05T01:49:13.388Z,99666.19
2022-11-05T01:51:18.223Z,99668.88
2022-11-05T01:53:25.028Z,99675.34
2022-11-05T01:55:31.752Z,99680.78
2022-11-05T01:57:33.472Z,99682.31
2022-11-05T01:59:38.643Z,99680.25
2022-11-05T02:04:11.324Z,99674.78
2022-11-05T02:06:15.908Z,99677.97
2022-11-05T02:08:25.943Z,99681.47
2022-11-05T02:10:27.933Z,99678.50
2022-11-05T02:12:30.174Z,99687.88
2022-11-05T02:14:31.629Z,99677.28
2022-11-05T02:16:39.411Z,99676.59
2022-11-05T02:18:53.026Z,99682.25
2022-11-05T02:21:05.443Z,99681.59
2022-11-05T02:23:45.348Z,99679.81
2022-11-05T02:26:29.399Z,99681.22
2022-11-05T02:29:01.711Z,99687.25
2022-11-05T02:31:13.671Z,99685.38
2022-11-05T02:33:33.304Z,99693.00
2022-11-05T02:35:59.503Z,99699.38
2022-11-05T02:38:07.317Z,99703.13
2022-11-05T02:40:17.271Z,99705.09
2022-11-05T02:42:30.272Z,99702.75
2022-11-05T02:44:41.327Z,99708.47
2022-11-05T02:46:51.568Z,99702.81
2022-11-05T02:48:58.813Z,99701.56
2022-11-05T02:51:08.625Z,99703.91
2022-11-05T02:53:16.043Z,99709.03
2022-11-05T02:55:25.088Z,99705.59
2022-11-05T02:57:28.811Z,99706.34
2022-11-05T02:59:30.499Z,99706.22
2022-11-05T03:01:32.099Z,99708.53
2022-11-05T03:03:39.733Z,99710.19
2022-11-05T03:05:50.648Z,99709.00
2022-11-05T03:07:59.184Z,99708.53
2022-11-05T03:10:14.270Z,99711.53
2022-11-05T03:12:23.724Z,99706.28
2022-11-05T03:14:39.356Z,99711.16
2022-11-05T03:16:44.266Z,99712.78
2022-11-05T03:18:56.660Z,99715.19
2022-11-05T03:21:02.706Z,99718.41
2022-11-05T03:23:11.092Z,99715.03
2022-11-05T03:25:17.625Z,99710.13
2022-11-05T03:27:23.456Z,99702.91
2022-11-05T03:29:30.109Z,99714.16
2022-11-05T03:31:34.116Z,99714.19
2022-11-05T03:33:37.711Z,99708.75
2022-11-05T03:35:46.361Z,99721.34
2022-11-05T03:37:51.745Z,99712.06
2022-11-05T03:39:58.858Z,99715.88
2022-11-05T03:42:03.746Z,99710.81
2022-11-05T03:44:08.278Z,99728.31
2022-11-05T03:46:15.743Z,99731.22
2022-11-05T03:48:19.989Z,99733.47
2022-11-05T03:50:27.208Z,99733.56
2022-11-05T03:52:35.907Z,99732.97
2022-11-05T03:54:37.655Z,99731.69
2022-11-05T03:56:44.385Z,99730.88
2022-11-05T03:58:47.261Z,99735.13
2022-11-05T04:00:49.664Z,99730.72
2022-11-05T04:02:51.624Z,99730.25
2022-11-05T04:04:54.787Z,99736.22
2022-11-05T04:06:56.259Z,99739.56
2022-11-05T04:08:59.099Z,99742.25
2022-11-05T04:11:00.563Z,99743.53
2022-11-05T04:13:02.046Z,99744.06
2022-11-05T04:15:03.939Z,99755.25
2022-11-05T04:17:05.620Z,99752.19
2022-11-05T04:19:07.108Z,99755.78
2022-11-05T04:21:10.121Z,99758.16
2022-11-05T04:23:11.916Z,99751.75
2022-11-05T04:25:16.387Z,99750.66
2022-11-05T04:27:17.862Z,99752.94
2022-11-05T04:29:19.396Z,99753.81
2022-11-05T04:31:20.866Z,99761.13
2022-11-05T04:33:22.337Z,99754.16
2022-11-05T04:35:24.369Z,99753.53
2022-11-05T04:37:25.847Z,99752.66
2022-11-05T04:39:27.304Z,99754.00
2022-11-05T04:41:30.133Z,99755.34
2022-11-05T04:43:31.608Z,99762.47
2022-11-05T04:45:34.702Z,99753.53
2022-11-05T04:47:36.165Z,99763.28
2022-11-05T04:49:37.634Z,99769.97
2022-11-05T04:51:39.093Z,99763.28
2022-11-05T04:53:40.559Z,99764.00
2022-11-05T04:55:42.060Z,99764.00
2022-11-05T04:57:47.669Z,99758.22
2022-11-05T04:59:49.135Z,99764.25
2022-11-05T05:01:51.432Z,99759.56
2022-11-05T05:03:54.059Z,99758.22
2022-11-05T05:06:03.553Z,99761.66
2022-11-05T05:08:05.818Z,99765.34
2022-11-05T05:10:09.041Z,99763.81
2022-11-05T05:12:10.536Z,99765.81
2022-11-05T05:14:13.340Z,99764.91
2022-11-05T05:16:19.424Z,99775.66
2022-11-05T05:18:20.908Z,99774.13
2022-11-05T05:20:22.361Z,99780.06
2022-11-05T05:22:23.841Z,99774.47
2022-11-05T05:24:25.310Z,99778.63
2022-11-05T05:26:26.783Z,99776.16
2022-11-05T05:28:28.392Z,99784.03
2022-11-05T05:30:31.223Z,99781.94
2022-11-05T05:32:33.125Z,99786.81
2022-11-05T05:34:34.591Z,99781.66
2022-11-05T05:36:36.046Z,99792.03
2022-11-05T05:38:37.667Z,99793.63
2022-11-05T05:40:39.116Z,99795.72
2022-11-05T05:42:43.440Z,99803.22
2022-11-05T05:44:45.132Z,99809.69
2022-11-05T05:46:47.968Z,99808.50
2022-11-05T05:48:51.006Z,99806.44
2022-11-05T05:50:52.439Z,99804.81
2022-11-05T05:52:53.945Z,99809.06
2022-11-05T05:54:55.437Z,99802.72
2022-11-05T05:56:56.899Z,99811.22
2022-11-05T05:58:58.359Z,99814.06
2022-11-05T06:01:00.701Z,99815.06
2022-11-05T06:03:03.721Z,99810.47
2022-11-05T06:05:05.737Z,99816.19
2022-11-05T06:07:07.383Z,99818.47
2022-11-05T06:09:08.857Z,99818.00
2022-11-05T06:11:10.413Z,99819.56
2022-11-05T06:13:12.228Z,99823.31
2022-11-05T06:15:13.889Z,99820.88
2022-11-05T06:17:15.372Z,99820.03
2022-11-05T06:19:18.209Z,99827.72
2022-11-05T06:21:19.765Z,99828.53
2022-11-05T06:23:21.273Z,99826.13
2022-11-05T06:25:22.833Z,99831.84
2022-11-05T06:27:24.271Z,99834.63
2022-11-05T06:29:25.769Z,99831.66
2022-11-05T06:31:27.229Z,99839.31
2022-11-05T06:33:28.843Z,99840.69
2022-11-05T06:35:32.152Z,99840.69
2022-11-05T06:37:33.578Z,99842.13
2022-11-05T06:39:35.039Z,99843.28
2022-11-05T06:41:56.977Z,99844.44
2022-11-05T06:43:58.062Z,99849.00
2022-11-05T06:46:01.794Z,99849.16
2022-11-05T06:48:03.532Z,99849.78
2022-11-05T06:50:05.765Z,99857.00
2022-11-05T06:52:08.652Z,99852.59
2022-11-05T06:54:10.213Z,99856.75
2022-11-05T06:56:11.710Z,99863.63
2022-11-05T06:58:13.372Z,99864.25
2022-11-05T07:00:15.797Z,99863.47
2022-11-05T07:02:17.285Z,99860.03
2022-11-05T07:04:18.885Z,99869.31
2022-11-05T07:06:20.426Z,99873.06
2022-11-05T07:08:23.407Z,99876.28
2022-11-05T07:10:25.156Z,99875.78
2022-11-05T07:12:26.621Z,99876.25
2022-11-05T07:14:28.063Z,99883.72
2022-11-05T07:16:29.571Z,99881.75
2022-11-05T07:18:31.049Z,99883.69
2022-11-05T07:20:34.418Z,99891.34
2022-11-05T07:22:36.964Z,99884.97
2022-11-05T07:24:39.764Z,99888.81
2022-11-05T07:26:41.312Z,99898.97
2022-11-05T07:28:42.815Z,99896.97
2022-11-05T07:30:44.247Z,99901.63
2022-11-05T07:32:45.709Z,99904.72
2022-11-05T07:34:47.183Z,99906.25
2022-11-05T07:36:48.651Z,99913.56
2022-11-05T07:38:50.140Z,99913.06
2022-11-05T07:40:52.973Z,99911.81
2022-11-05T07:42:56.214Z,99907.94
2022-11-05T07:44:57.662Z,99910.81
2022-11-05T07:46:59.125Z,99912.28
2022-11-05T07:49:00.592Z,99917.34
2022-11-05T07:51:02.047Z,99918.91
2022-11-05T07:53:05.336Z,99920.69
2022-11-05T07:55:07.939Z,99915.25
2022-11-05T07:57:10.739Z,99916.16
2022-11-05T07:59:12.250Z,99913.63
2022-11-05T08:01:13.753Z,99915.53
2022-11-05T08:03:18.034Z,99924.28
2022-11-05T08:05:19.879Z,99922.81
2022-11-05T08:07:21.328Z,99920.88
2022-11-05T08:09:22.794Z,99916.34
2022-11-05T08:11:24.278Z,99917.47
2022-11-05T08:13:27.157Z,99926.47
2022-11-05T08:15:29.051Z,99922.56
2022-11-05T08:17:30.510Z,99927.97
2022-11-05T08:19:31.988Z,99923.22
2022-11-05T08:21:33.448Z,99933.69
2022-11-05T08:23:34.960Z,99931.00
2022-11-05T08:25:36.456Z,99936.09
2022-11-05T08:27:38.059Z,99930.91
2022-11-05T08:29:40.875Z,99929.75
2022-11-05T08:31:42.339Z,99928.56
2022-11-05T08:33:44.132Z,99933.63
2022-11-05T08:35:45.619Z,99928.75
2022-11-05T08:37:47.069Z,99941.72
2022-11-05T08:39:48.564Z,99931.41
2022-11-05T08:41:50.022Z,99938.59
2022-11-05T08:43:54.279Z,99942.19
2022-11-05T08:45:59.335Z,99944.31
2022-11-05T08:48:01.548Z,99943.50
2022-11-05T08:50:03.410Z,99940.31
2022-11-05T08:52:04.933Z,99946.22
2022-11-05T08:54:06.645Z,99944.06
2022-11-05T08:56:08.532Z,99947.34
2022-11-05T08:58:12.176Z,99951.78
2022-11-05T09:00:14.819Z,99952.19
2022-11-05T09:02:17.751Z,99944.72
2022-11-05T09:04:19.322Z,99945.72
2022-11-05T09:06:20.943Z,99943.72
2022-11-05T09:08:22.422Z,99944.75
2022-11-05T09:10:24.249Z,99953.25
2022-11-05T09:12:25.729Z,99949.97
2022-11-05T09:14:27.231Z,99949.19
2022-11-05T09:16:28.797Z,99948.59
2022-11-05T09:18:31.659Z,99945.78
2022-11-05T09:20:33.912Z,99947.81
2022-11-05T09:22:39.206Z,99953.28
2022-11-05T09:24:44.489Z,99950.66
2022-11-05T09:26:45.983Z,99958.38
2022-11-05T09:28:47.470Z,99949.88
2022-11-05T09:30:50.589Z,99954.59
2022-11-05T09:32:52.239Z,99947.66
2022-11-05T09:34:55.117Z,99960.22
2022-11-05T09:36:57.143Z,99953.50
2022-11-05T09:38:58.623Z,99954.94
2022-11-05T09:41:02.299Z,99963.44
2022-11-05T09:43:05.379Z,99963.22
2022-11-05T09:45:13.432Z,99966.47
2022-11-05T09:47:20.152Z,99962.00
2022-11-05T09:49:27.638Z,99971.31
2022-11-05T09:51:31.533Z,99966.25
2022-11-05T09:53:38.016Z,99962.59
2022-11-05T09:55:42.318Z,99965.63
2022-11-05T09:57:45.920Z,99958.94
2022-11-05T09:59:51.017Z,99961.19
2022-11-05T10:01:57.749Z,99963.00
2022-11-05T10:04:05.724Z,99966.25
2022-11-05T10:06:09.459Z,99965.03
2022-11-05T10:08:18.023Z,99964.81
2022-11-05T10:10:30.370Z,99972.09
2022-11-05T10:12:39.117Z,99971.88
2022-11-05T10:14:44.443Z,99976.34
2022-11-05T10:16:51.967Z,99973.69
2022-11-05T10:18:59.040Z,99972.66
2022-11-05T10:21:01.014Z,99984.63
2022-11-05T10:23:10.715Z,99973.50
2022-11-05T10:25:19.064Z,99977.63
2022-11-05T10:27:23.803Z,99976.22
2022-11-05T10:29:27.329Z,99970.75
2022-11-05T10:31:35.525Z,99976.88
2022-11-05T10:33:42.112Z,99983.56
2022-11-05T10:35:48.485Z,99983.19
2022-11-05T10:37:50.636Z,99983.75
2022-11-05T10:39:52.172Z,99987.41
2022-11-05T10:42:09.533Z,99984.34
2022-11-05T10:44:27.989Z,99982.13
2022-11-05T10:46:35.119Z,99984.56
2022-11-05T10:49:00.812Z,99985.41
2022-11-05T10:51:02.296Z,99979.69
2022-11-05T10:53:14.379Z,99982.53
2022-11-05T10:55:20.805Z,99990.00
2022-11-05T10:57:34.354Z,99984.94
2022-11-05T10:59:36.168Z,99982.06
2022-11-05T11:01:37.753Z,99985.66
2022-11-05T11:03:43.166Z,99986.25
2022-11-05T11:05:44.647Z,99988.63
2022-11-05T11:07:53.863Z,99980.66
2022-11-05T11:09:55.429Z,99983.88
2022-11-05T11:12:04.230Z,99984.00
2022-11-05T11:14:19.419Z,99986.53
2022-11-05T11:16:22.700Z,99991.44
2022-11-05T11:18:27.597Z,99991.44
2022-11-05T11:20:30.952Z,99986.13
2022-11-05T11:22:32.611Z,99986.88
2022-11-05T11:24:38.668Z,99978.47
2022-11-05T11:26:40.692Z,99975.91
2022-11-05T11:28:46.979Z,99976.91
2022-11-05T11:30:53.796Z,99967.06
2022-11-05T11:32:59.702Z,99980.44
2022-11-05T11:35:01.968Z,99981.66
2022-11-05T11:37:07.779Z,99984.34
2022-11-05T11:39:15.566Z,99981.25
2022-11-05T11:41:25.100Z,99974.75
2022-11-05T11:43:28.743Z,99973.59
2022-11-05T11:45:33.682Z,99977.16
2022-11-05T11:47:43.456Z,99974.38
2022-11-05T11:49:46.988Z,99977.53
2022-11-05T11:51:50.274Z,99982.69
2022-11-05T11:53:57.133Z,99977.22
2022-11-05T11:56:05.355Z,99976.72
2022-11-05T11:58:09.745Z,99977.53
2022-11-05T12:00:12.246Z,99978.53
2022-11-05T12:02:50.323Z,99978.31
2022-11-05T12:05:10.813Z,99971.47
2022-11-05T12:07:25.013Z,99981.94
2022-11-05T12:09:40.363Z,99984.59
2022-11-05T12:11:48.875Z,99978.41
2022-11-05T12:14:01.154Z,99980.84
2022-11-05T12:16:14.352Z,99975.59
2022-11-05T12:18:25.612Z,99974.94
2022-11-05T12:20:38.081Z,99974.09
2022-11-05T12:22:57.095Z,99967.31
2022-11-05T12:25:12.856Z,99967.81
2022-11-05T12:27:24.176Z,99968.63
2022-11-05T12:29:45.134Z,99964.88
2022-11-05T12:32:02.229Z,99962.97
2022-11-05T12:34:19.399Z,99960.13
2022-11-05T12:36:43.072Z,99959.59
2022-11-05T12:39:18.715Z,99960.03
2022-11-05T12:41:25.496Z,99962.53
2022-11-05T12:43:36.404Z,99962.44
2022-11-05T12:45:47.008Z,99962.75
2022-11-05T12:48:04.727Z,99955.28
2022-11-05T12:50:20.442Z,99953.25
2022-11-05T12:52:48.647Z,99962.06
2022-11-05T12:55:03.700Z,99952.09
2022-11-05T12:57:08.640Z,99955.69
2022-11-05T12:59:18.036Z,99953.28
2022-11-05T13:01:26.605Z,99955.22
2022-11-05T13:03:40.100Z,99963.75
2022-11-05T13:05:45.986Z,99953.19
2022-11-05T13:07:54.555Z,99957.81
2022-11-05T13:10:01.229Z,99945.75
2022-11-05T13:12:06.387Z,99951.19
2022-11-05T13:14:12.837Z,99946.72
2022-11-05T13:16:26.904Z,99941.50
2022-11-05T13:18:35.000Z,99936.13
2022-11-05T13:20:39.902Z,99935.78
2022-11-05T13:22:45.990Z,99926.00
2022-11-05T13:24:49.875Z,99931.38
2022-11-05T13:26:56.462Z,99931.78
2022-11-05T13:29:04.268Z,99930.97
2022-11-05T13:31:10.526Z,99934.66
2022-11-05T13:33:16.437Z,99935.03
2022-11-05T13:35:25.161Z,99927.09
2022-11-05T13:37:31.050Z,99936.13
2022-11-05T13:39:36.378Z,99933.28
2022-11-05T13:41:53.221Z,99928.28
2022-11-05T13:44:22.115Z,99926.44
2022-11-05T13:46:37.648Z,99917.31
2022-11-05T13:49:04.728Z,99928.09
2022-11-05T13:51:22.603Z,99927.88
2022-11-05T13:53:51.099Z,99923.19
2022-11-05T13:56:04.653Z,99928.56
2022-11-05T13:58:45.182Z,99924.81
2022-11-05T14:01:02.980Z,99917.09
2022-11-05T14:03:14.231Z,99919.28
2022-11-05T14:05:23.865Z,99920.34
2022-11-05T14:07:28.916Z,99916.34
2022-11-05T14:09:33.322Z,99920.63
2022-11-05T14:11:38.100Z,99918.06
2022-11-05T14:13:42.028Z,99916.22
2022-11-05T14:15:55.374Z,99906.41
2022-11-05T14:18:00.000Z,99911.59
2022-11-05T14:20:24.798Z,99912.66
2022-11-05T14:22:38.080Z,99912.41
2022-11-05T14:24:41.698Z,99901.38
2022-11-05T14:26:44.579Z,99904.28
2022-11-05T14:28:48.655Z,99911.50
2022-11-05T14:30:50.203Z,99913.72
2022-11-05T14:33:02.384Z,99904.84
2022-11-05T14:35:33.438Z,99908.44
2022-11-05T14:37:36.606Z,99912.34
2022-11-05T14:39:39.069Z,99907.91
2022-11-05T14:42:01.157Z,99906.72
2022-11-05T14:44:07.306Z,99912.00
2022-11-05T14:46:09.698Z,99908.88
2022-11-05T14:48:27.709Z,99911.66
2022-11-05T14:50:36.768Z,99905.94
2022-11-05T14:52:40.789Z,99900.47
2022-11-05T14:54:45.599Z,99898.03
2022-11-05T14:56:55.866Z,99896.19
2022-11-05T14:59:34.759Z,99887.19
2022-11-05T15:01:54.822Z,99883.63
2022-11-05T15:04:16.439Z,99880.78
2022-11-05T15:06:30.330Z,99872.50
2022-11-05T15:08:36.635Z,99876.38
2022-11-05T15:10:38.994Z,99881.63
2022-11-05T15:12:45.388Z,99881.63
2022-11-05T15:14:54.192Z,99877.00
2022-11-05T15:17:01.627Z,99872.78
2022-11-05T15:19:04.899Z,99878.88
2022-11-05T15:21:10.419Z,99882.72
2022-11-05T15:23:16.729Z,99896.53
2022-11-05T15:25:21.303Z,99892.72
2022-11-05T15:27:38.955Z,99898.63
2022-11-05T15:29:40.726Z,99898.81
2022-11-05T15:31:43.770Z,99900.06
2022-11-05T15:33:46.721Z,99902.72
2022-11-05T15:35:48.300Z,99902.34
2022-11-05T15:37:54.807Z,99901.16
2022-11-05T15:39:57.536Z,99892.63
2022-11-05T15:42:02.402Z,99894.69
2022-11-05T15:44:04.084Z,99902.63
2022-11-05T15:46:07.672Z,99904.03
2022-11-05T15:48:19.656Z,99896.53
2022-11-05T15:50:21.314Z,99901.00
2022-11-05T15:52:24.815Z,99902.44
2022-11-05T15:54:30.967Z,99912.16
2022-11-05T15:56:36.349Z,99919.69
2022-11-05T15:58:46.288Z,99907.31
2022-11-05T16:00:48.800Z,99914.19
2022-11-05T16:02:53.898Z,99905.31
2022-11-05T16:04:58.551Z,99906.34
2022-11-05T16:07:06.493Z,99904.50
2022-11-05T16:09:19.482Z,99912.41
2022-11-05T16:11:22.990Z,99910.78
2022-11-05T16:13:31.670Z,99908.38
2022-11-05T16:15:33.168Z,99913.81
2022-11-05T16:17:46.517Z,99913.84
2022-11-05T16:19:48.731Z,99918.31
2022-11-05T16:21:55.058Z,99910.81
2022-11-05T16:23:58.932Z,99908.97
2022-11-05T16:26:00.420Z,99900.28
2022-11-05T16:28:02.714Z,99912.81
2022-11-05T16:30:05.132Z,99914.25
2022-11-05T16:32:14.982Z,99910.38
2022-11-05T16:34:26.536Z,99907.94
2022-11-05T16:36:30.884Z,99903.31
2022-11-05T16:38:33.784Z,99904.72
2022-11-05T16:40:35.347Z,99903.09
2022-11-05T16:42:39.158Z,99904.91
2022-11-05T16:44:40.636Z,99906.94
2022-11-05T16:46:44.160Z,99904.31
2022-11-05T16:48:45.633Z,99901.06
2022-11-05T16:50:47.284Z,99898.25
2022-11-05T16:52:49.457Z,99900.25
2022-11-05T16:54:52.276Z,99905.75
2022-11-05T16:56:53.777Z,99912.41
2022-11-05T16:58:55.256Z,99912.22
2022-11-05T17:01:01.784Z,99911.00
2022-11-05T17:03:03.532Z,99912.84
2022-11-05T17:05:06.956Z,99915.63
2022-11-05T17:07:08.456Z,99915.25
2022-11-05T17:09:09.964Z,99915.44
2022-11-05T17:11:15.815Z,99909.53
2022-11-05T17:15:45.782Z,99906.16
2022-11-05T17:20:19.163Z,99905.72
2022-11-05T17:22:20.635Z,99905.31
2022-11-05T17:24:22.405Z,99898.41
2022-11-05T17:26:25.253Z,99907.53
2022-11-05T17:28:27.317Z,99909.38
2022-11-05T17:30:28.953Z,99907.72
2022-11-05T17:32:30.459Z,99909.13
2022-11-05T17:34:31.995Z,99906.72
2022-11-05T17:36:33.477Z,99915.63
2022-11-05T17:38:35.169Z,99904.69
2022-11-05T17:40:37.584Z,99910.78
2022-11-05T17:42:40.614Z,99901.88
2022-11-05T17:44:42.153Z,99908.53
2022-11-05T17:46:43.658Z,99914.22
2022-11-05T17:48:45.671Z,99911.78
2022-11-05T17:50:49.403Z,99908.94
2022-11-05T17:52:50.874Z,99907.13
2022-11-05T17:54:52.340Z,99910.78
2022-11-05T17:56:53.847Z,99905.53
2022-11-05T17:58:56.663Z,99909.78
2022-11-05T18:00:58.122Z,99913.25
2022-11-05T18:02:59.648Z,99902.88
2022-11-05T18:05:01.164Z,99906.75
2022-11-05T18:07:02.636Z,99909.56
2022-11-05T18:09:04.975Z,99907.34
2022-11-05T18:11:06.431Z,99908.16
2022-11-05T18:13:07.938Z,99898.19
2022-11-05T18:15:11.883Z,99902.69
2022-11-05T18:17:13.339Z,99901.06
2022-11-05T18:19:15.044Z,99910.38
2022-11-05T18:21:16.792Z,99901.88
2022-11-05T18:23:18.305Z,99906.91
2022-11-05T18:25:19.924Z,99915.41
2022-11-05T18:27:21.951Z,99918.69
2022-11-05T18:29:23.423Z,99920.69
2022-11-05T18:31:26.283Z,99911.78
2022-11-05T18:33:28.005Z,99923.13
2022-11-05T18:35:29.531Z,99922.91
2022-11-05T18:37:31.252Z,99919.28
2022-11-05T18:39:32.721Z,99922.72
2022-11-05T18:41:34.279Z,99917.84
2022-11-05T18:43:35.795Z,99915.84
2022-11-05T18:45:37.263Z,99919.09
2022-11-05T18:47:40.135Z,99920.09
2022-11-05T18:49:41.704Z,99916.88
2022-11-05T18:51:43.288Z,99910.16
2022-11-05T18:53:44.839Z,99910.78
2022-11-05T18:55:46.320Z,99905.13
2022-11-05T18:57:47.945Z,99908.56
2022-11-05T18:59:49.593Z,99903.72
2022-11-05T19:01:51.119Z,99907.34
2022-11-05T19:03:54.714Z,99903.28
2022-11-05T19:05:56.177Z,99903.28
2022-11-05T19:07:58.186Z,99910.97
2022-11-05T19:10:50.820Z,99908.53
2022-11-05T19:12:52.837Z,99905.50
2022-11-05T19:14:59.367Z,99905.09
2022-11-05T19:17:08.984Z,99904.91
2022-11-05T19:19:10.549Z,99907.13
2022-11-05T19:21:15.005Z,99906.91
2022-11-05T19:23:16.528Z,99902.88
2022-11-05T19:25:18.037Z,99900.22
2022-11-05T19:27:20.881Z,99904.72
2022-11-05T19:29:22.421Z,99907.75
2022-11-05T19:31:23.950Z,99904.31
2022-11-05T19:33:25.946Z,99914.84
2022-11-05T19:35:27.404Z,99911.19
2022-11-05T19:37:28.887Z,99917.28
2022-11-05T19:39:30.360Z,99922.34
2022-11-05T19:41:31.925Z,99918.91
2022-11-05T19:43:35.649Z,99930.44
2022-11-05T19:45:44.659Z,99926.78
2022-11-05T19:47:46.819Z,99921.72
2022-11-05T19:49:48.293Z,99924.97
2022-11-05T19:51:49.819Z,99923.34
2022-11-05T19:53:52.159Z,99924.16
2022-11-05T19:55:53.622Z,99934.69
2022-11-05T19:57:55.064Z,99916.06
2022-11-05T19:59:57.895Z,99913.44
2022-11-05T20:01:59.468Z,99913.44
2022-11-05T20:04:01.307Z,99910.78
2022-11-05T20:06:04.742Z,99918.06
2022-11-05T20:08:06.681Z,99916.25
2022-11-05T20:10:08.819Z,99915.25
2022-11-05T20:12:10.345Z,99916.88
2022-11-05T20:14:11.926Z,99916.22
2022-11-05T20:16:23.487Z,99922.13
2022-11-05T20:18:25.652Z,99915.41
2022-11-05T20:20:27.131Z,99917.03
2022-11-05T20:22:28.596Z,99908.31
2022-11-05T20:24:30.118Z,99897.78
2022-11-05T20:26:31.695Z,99904.47
2022-11-05T20:28:35.132Z,99901.44
2022-11-05T20:30:38.533Z,99914.00
2022-11-05T20:32:41.381Z,99910.16
2022-11-05T20:34:42.962Z,99910.75
2022-11-05T20:36:44.485Z,99917.22
2022-11-05T20:38:48.209Z,99924.53
2022-11-05T20:40:49.723Z,99919.28
2022-11-05T20:42:51.189Z,99921.91
2022-11-05T20:44:52.778Z,99923.72
2022-11-05T20:46:54.291Z,99921.72
2022-11-05T20:48:57.194Z,99922.31
2022-11-05T20:50:59.061Z,99920.91
2022-11-05T20:53:00.958Z,99921.50
2022-11-05T20:55:03.110Z,99908.97
2022-11-05T20:57:05.090Z,99900.03
2022-11-05T20:59:07.016Z,99901.47
2022-11-05T21:01:11.980Z,99900.25
2022-11-05T21:03:13.509Z,99894.97
2022-11-05T21:05:16.496Z,99900.25
2022-11-05T21:07:18.000Z,99891.34
2022-11-05T21:09:19.468Z,99897.00
2022-11-05T21:11:21.372Z,99898.00
2022-11-05T21:13:23.606Z,99900.66
2022-11-05T21:15:25.146Z,99900.66
2022-11-05T21:17:26.734Z,99904.28
2022-11-05T21:19:30.380Z,99920.91
2022-11-05T21:21:36.332Z,99927.00
2022-11-05T21:23:40.234Z,99939.94
2022-11-05T21:25:43.050Z,99944.38
2022-11-05T21:27:44.558Z,99938.13
2022-11-05T21:29:46.032Z,99934.66
2022-11-05T21:31:47.547Z,99937.31
2022-11-05T21:33:54.852Z,99927.81
2022-11-05T21:35:57.343Z,99924.34
2022-11-05T21:38:00.479Z,99926.34
2022-11-05T21:40:01.956Z,99917.28
2022-11-05T21:42:03.751Z,99919.88
2022-11-05T21:44:05.251Z,99915.63
2022-11-05T21:46:06.795Z,99925.34
2022-11-05T21:48:08.920Z,99917.41
2022-11-05T21:50:11.344Z,99914.59
2022-11-05T21:52:13.111Z,99916.19
2022-11-05T21:54:16.004Z,99905.25
2022-11-05T21:56:21.459Z,99900.38
2022-11-05T21:58:22.964Z,99891.44
2022-11-05T22:00:24.620Z,99882.94
2022-11-05T22:02:26.510Z,99884.56
2022-11-05T22:04:28.768Z,99871.19
2022-11-05T22:06:32.184Z,99874.22
2022-11-05T22:08:33.688Z,99877.25
2022-11-05T22:10:36.576Z,99876.47
2022-11-05T22:12:38.289Z,99877.28
2022-11-05T22:14:39.837Z,99877.50
2022-11-05T22:16:41.392Z,99871.81
2022-11-05T22:18:42.879Z,99881.34
2022-11-05T22:20:44.393Z,99867.56
2022-11-05T22:22:45.898Z,99871.19
2022-11-05T22:24:47.386Z,99867.94
2022-11-05T22:26:51.383Z,99862.66
2022-11-05T22:28:53.422Z,99878.47
2022-11-05T22:30:54.914Z,99873.00
2022-11-05T22:32:56.457Z,99874.22
2022-11-05T22:34:57.933Z,99876.84
2022-11-05T22:36:59.421Z,99869.53
2022-11-05T22:39:02.175Z,99869.13
2022-11-05T22:41:07.082Z,99862.44
2022-11-05T22:43:09.960Z,99858.59
2022-11-05T22:45:11.562Z,99854.13
2022-11-05T22:47:13.060Z,99855.31
2022-11-05T22:49:15.135Z,99857.34
2022-11-05T22:51:19.183Z,99860.22
2022-11-05T22:53:20.732Z,99852.91
2022-11-05T22:55:22.186Z,99850.69
2022-11-05T22:57:23.690Z,99847.84
2022-11-05T22:59:26.768Z,99853.09
2022-11-05T23:01:28.627Z,99850.03
2022-11-05T23:03:31.963Z,99845.56
2022-11-05T23:05:33.437Z,99857.22
2022-11-05T23:07:34.963Z,99851.19
2022-11-05T23:09:36.467Z,99846.13
2022-11-05T23:11:38.878Z,99842.84
2022-11-05T23:13:40.344Z,99840.38
2022-11-05T23:15:43.169Z,99842.81
2022-11-05T23:17:44.928Z,99837.81
2022-11-05T23:19:46.395Z,99833.94
2022-11-05T23:21:47.839Z,99843.00
2022-11-05T23:23:49.355Z,99845.44
2022-11-05T23:25:56.219Z,99840.56
2022-11-05T23:27:57.746Z,99841.75
2022-11-05T23:30:00.141Z,99840.72
2022-11-05T23:32:03.022Z,99839.72
2022-11-05T23:34:04.489Z,99844.97
2022-11-05T23:36:06.355Z,99846.75
2022-11-05T23:38:07.888Z,99850.94
2022-11-05T23:40:13.055Z,99844.66
2022-11-05T23:42:14.659Z,99848.53
2022-11-05T23:44:16.128Z,99849.56
2022-11-05T23:46:17.643Z,99846.78
2022-11-05T23:48:25.186Z,99838.88
2022-11-05T23:50:27.285Z,99837.47
2022-11-05T23:52:28.792Z,99832.03
2022-11-05T23:54:30.306Z,99830.00
2022-11-05T23:56:31.864Z,99820.53
2022-11-05T23:58:34.148Z,99820.78
